createdAt,value
2017-01-22T00:00:27.547Z,23.47
2017-01-22T00:01:08.132Z,23.4
2017-01-22T00:01:48.716Z,23.46
2017-01-22T00:02:29.325Z,23.47
2017-01-22T00:03:09.914Z,23.42
2017-01-22T00:03:50.498Z,23.4
2017-01-22T00:04:31.115Z,23.38
2017-01-22T00:05:11.713Z,23.36
2017-01-22T00:05:52.300Z,23.43
2017-01-22T00:06:32.891Z,23.38
2017-01-22T00:07:13.484Z,23.43
2017-01-22T00:07:54.073Z,23.47
2017-01-22T00:08:34.665Z,23.42
2017-01-22T00:09:15.271Z,23.38
2017-01-22T00:09:55.867Z,23.47
2017-01-22T00:10:36.458Z,23.39
2017-01-22T00:11:17.050Z,23.43
2017-01-22T00:11:57.641Z,23.4
2017-01-22T00:12:38.242Z,23.47
2017-01-22T00:13:18.827Z,23.38
2017-01-22T00:13:59.409Z,23.47
2017-01-22T00:14:40.002Z,23.36
2017-01-22T00:15:20.616Z,23.36
2017-01-22T00:16:01.187Z,23.4
2017-01-22T00:16:41.785Z,23.43
2017-01-22T00:17:22.391Z,23.43
2017-01-22T00:18:03.007Z,23.43
2017-01-22T00:18:43.601Z,23.39
2017-01-22T00:19:24.194Z,23.39
2017-01-22T00:20:04.799Z,23.39
2017-01-22T00:20:45.422Z,23.42
2017-01-22T00:21:26.029Z,23.43
2017-01-22T00:22:06.620Z,23.39
2017-01-22T00:22:47.244Z,23.38
2017-01-22T00:23:27.839Z,23.4
2017-01-22T00:24:08.420Z,23.4
2017-01-22T00:24:49.011Z,23.42
2017-01-22T00:25:29.603Z,23.47
2017-01-22T00:26:10.217Z,23.36
2017-01-22T00:26:50.828Z,23.35
2017-01-22T00:27:31.413Z,23.38
2017-01-22T00:28:12.001Z,23.42
2017-01-22T00:28:52.580Z,23.4
2017-01-22T00:29:33.188Z,23.43
2017-01-22T00:30:13.779Z,23.47
2017-01-22T00:30:54.375Z,23.39
2017-01-22T00:31:34.969Z,23.38
2017-01-22T00:32:15.563Z,23.36
2017-01-22T00:32:56.155Z,23.38
2017-01-22T00:33:36.741Z,23.38
2017-01-22T00:34:17.331Z,23.4
2017-01-22T00:34:57.941Z,23.4
2017-01-22T00:35:38.504Z,23.38
2017-01-22T00:36:19.087Z,23.43
2017-01-22T00:36:59.684Z,23.38
2017-01-22T00:37:40.285Z,23.47
2017-01-22T00:38:20.888Z,23.35
2017-01-22T00:39:01.484Z,23.38
2017-01-22T00:39:42.085Z,23.42
2017-01-22T00:40:22.668Z,23.38
2017-01-22T00:41:03.313Z,23.46
2017-01-22T00:41:43.951Z,23.47
2017-01-22T00:42:24.519Z,23.43
2017-01-22T00:43:05.115Z,23.36
2017-01-22T00:43:45.709Z,23.47
2017-01-22T00:44:26.293Z,23.4
2017-01-22T00:45:06.888Z,23.43
2017-01-22T00:45:47.482Z,23.35
2017-01-22T00:46:28.071Z,23.36
2017-01-22T00:47:08.647Z,23.4
2017-01-22T00:47:49.259Z,23.36
2017-01-22T00:48:29.894Z,23.42
2017-01-22T00:49:10.499Z,23.36
2017-01-22T00:49:51.070Z,23.4
2017-01-22T00:50:31.665Z,23.46
2017-01-22T00:51:12.247Z,23.4
2017-01-22T00:51:52.831Z,23.4
2017-01-22T00:52:33.411Z,23.42
2017-01-22T00:53:14.000Z,23.43
2017-01-22T00:53:54.595Z,23.43
2017-01-22T00:54:35.187Z,23.39
2017-01-22T00:55:15.782Z,23.4
2017-01-22T00:55:56.371Z,23.38
2017-01-22T00:56:36.975Z,23.43
2017-01-22T00:57:17.554Z,23.42
2017-01-22T00:57:58.152Z,23.36
2017-01-22T00:58:38.765Z,23.35
2017-01-22T00:59:19.351Z,23.39
2017-01-22T00:59:59.954Z,23.35
2017-01-22T01:00:40.565Z,23.33
2017-01-22T01:01:21.165Z,23.39
2017-01-22T01:02:01.760Z,23.4
2017-01-22T01:02:42.345Z,23.33
2017-01-22T01:03:22.943Z,23.36
2017-01-22T01:04:03.577Z,23.39
2017-01-22T01:04:44.188Z,23.39
2017-01-22T01:05:24.771Z,23.36
2017-01-22T01:06:05.359Z,23.43
2017-01-22T01:06:45.956Z,23.36
2017-01-22T01:07:26.547Z,23.4
2017-01-22T01:08:07.139Z,23.36
2017-01-22T01:08:47.729Z,23.43
2017-01-22T01:09:28.331Z,23.38
2017-01-22T01:10:08.932Z,23.39
2017-01-22T01:10:49.533Z,23.35
2017-01-22T01:11:30.140Z,23.36
2017-01-22T01:12:11.652Z,23.36
2017-01-22T01:12:51.339Z,23.27
2017-01-22T01:13:31.939Z,23.42
2017-01-22T01:14:12.521Z,23.36
2017-01-22T01:14:53.113Z,23.36
2017-01-22T01:15:33.707Z,23.33
2017-01-22T01:16:14.292Z,23.32
2017-01-22T01:16:54.878Z,23.32
2017-01-22T01:17:35.457Z,23.33
2017-01-22T01:18:16.054Z,23.36
2017-01-22T01:18:56.633Z,23.28
2017-01-22T01:19:37.220Z,23.31
2017-01-22T01:20:17.800Z,23.36
2017-01-22T01:20:58.383Z,23.36
2017-01-22T01:21:38.982Z,23.31
2017-01-22T01:22:19.568Z,23.28
2017-01-22T01:23:00.186Z,23.33
2017-01-22T01:23:40.787Z,23.35
2017-01-22T01:24:21.390Z,23.31
2017-01-22T01:25:01.974Z,23.28
2017-01-22T01:25:42.586Z,23.35
2017-01-22T01:26:23.171Z,23.38
2017-01-22T01:27:03.802Z,23.33
2017-01-22T01:27:44.408Z,23.31
2017-01-22T01:28:24.991Z,23.35
2017-01-22T01:29:05.599Z,23.38
2017-01-22T01:29:46.185Z,23.33
2017-01-22T01:30:26.779Z,23.38
2017-01-22T01:31:07.367Z,23.35
2017-01-22T01:31:47.975Z,23.32
2017-01-22T01:32:28.571Z,23.39
2017-01-22T01:33:09.188Z,23.38
2017-01-22T01:33:49.776Z,23.36
2017-01-22T01:34:30.361Z,23.38
2017-01-22T01:35:10.960Z,23.31
2017-01-22T01:35:51.575Z,23.43
2017-01-22T01:36:32.157Z,23.38
2017-01-22T01:37:12.757Z,23.35
2017-01-22T01:37:53.357Z,23.4
2017-01-22T01:38:33.972Z,23.39
2017-01-22T01:39:14.562Z,23.39
2017-01-22T01:39:55.160Z,23.38
2017-01-22T01:40:35.788Z,23.43
2017-01-22T01:41:16.367Z,23.32
2017-01-22T01:41:56.976Z,23.36
2017-01-22T01:42:37.569Z,23.4
2017-01-22T01:43:18.171Z,23.32
2017-01-22T01:43:58.773Z,23.43
2017-01-22T01:44:39.358Z,23.33
2017-01-22T01:45:19.932Z,23.4
2017-01-22T01:46:00.528Z,23.39
2017-01-22T01:46:41.121Z,23.35
2017-01-22T01:47:21.712Z,23.35
2017-01-22T01:48:02.296Z,23.31
2017-01-22T01:48:42.935Z,23.36
2017-01-22T01:49:23.519Z,23.33
2017-01-22T01:50:04.104Z,23.33
2017-01-22T01:50:44.691Z,23.4
2017-01-22T01:51:25.275Z,23.36
2017-01-22T01:52:05.864Z,23.32
2017-01-22T01:52:46.459Z,23.35
2017-01-22T01:53:27.053Z,23.38
2017-01-22T01:54:07.688Z,23.32
2017-01-22T01:54:48.297Z,23.31
2017-01-22T01:55:28.916Z,23.35
2017-01-22T01:56:09.505Z,23.43
2017-01-22T01:56:50.114Z,23.35
2017-01-22T01:57:30.716Z,23.39
2017-01-22T01:58:11.299Z,23.36
2017-01-22T01:58:51.932Z,23.36
2017-01-22T01:59:32.518Z,23.35
2017-01-22T02:00:13.124Z,23.38
2017-01-22T02:00:53.708Z,23.39
2017-01-22T02:01:34.280Z,23.39
2017-01-22T02:02:14.893Z,23.43
2017-01-22T02:02:55.489Z,23.42
2017-01-22T02:03:36.081Z,23.31
2017-01-22T02:04:16.678Z,23.36
2017-01-22T02:04:57.271Z,23.35
2017-01-22T02:05:37.883Z,23.38
2017-01-22T02:06:18.483Z,23.32
2017-01-22T02:06:59.073Z,23.36
2017-01-22T02:07:39.692Z,23.39
2017-01-22T02:08:20.277Z,23.43
2017-01-22T02:09:00.863Z,23.46
2017-01-22T02:09:41.463Z,23.23
2017-01-22T02:10:22.055Z,23.38
2017-01-22T02:11:02.651Z,23.39
2017-01-22T02:11:43.252Z,23.39
2017-01-22T02:12:23.816Z,23.43
2017-01-22T02:13:04.407Z,23.35
2017-01-22T02:13:44.990Z,23.38
2017-01-22T02:14:25.608Z,23.35
2017-01-22T02:15:06.217Z,23.36
2017-01-22T02:15:46.798Z,23.38
2017-01-22T02:16:27.378Z,23.43
2017-01-22T02:17:07.968Z,23.38
2017-01-22T02:17:48.556Z,23.38
2017-01-22T02:18:31.094Z,23.42
2017-01-22T02:19:11.681Z,23.33
2017-01-22T02:19:52.277Z,23.36
2017-01-22T02:20:32.865Z,23.38
2017-01-22T02:21:13.471Z,23.39
2017-01-22T02:21:54.118Z,23.38
2017-01-22T02:22:34.696Z,23.35
2017-01-22T02:23:15.288Z,23.4
2017-01-22T02:23:55.896Z,23.4
2017-01-22T02:24:36.481Z,23.38
2017-01-22T02:25:17.083Z,23.36
2017-01-22T02:25:57.665Z,23.4
2017-01-22T02:26:38.261Z,23.42
2017-01-22T02:27:18.843Z,23.38
2017-01-22T02:27:59.436Z,23.39
2017-01-22T02:28:40.017Z,23.42
2017-01-22T02:29:20.601Z,23.38
2017-01-22T02:30:01.205Z,23.35
2017-01-22T02:30:41.791Z,23.38
2017-01-22T02:31:22.392Z,23.42
2017-01-22T02:32:02.976Z,23.35
2017-01-22T02:32:43.570Z,23.38
2017-01-22T02:33:24.156Z,23.33
2017-01-22T02:34:04.749Z,23.36
2017-01-22T02:34:45.321Z,23.38
2017-01-22T02:35:25.911Z,23.35
2017-01-22T02:36:06.502Z,23.38
2017-01-22T02:36:47.107Z,23.36
2017-01-22T02:37:27.720Z,23.35
2017-01-22T02:38:08.308Z,23.38
2017-01-22T02:38:48.889Z,23.36
2017-01-22T02:39:29.488Z,23.36
2017-01-22T02:40:10.080Z,23.35
2017-01-22T02:40:50.668Z,23.36
2017-01-22T02:41:31.271Z,23.38
2017-01-22T02:42:11.864Z,23.4
2017-01-22T02:42:52.453Z,23.35
2017-01-22T02:43:33.032Z,23.4
2017-01-22T02:44:13.625Z,23.38
2017-01-22T02:44:54.235Z,23.4
2017-01-22T02:45:34.845Z,23.4
2017-01-22T02:46:15.469Z,23.4
2017-01-22T02:46:56.047Z,23.4
2017-01-22T02:47:36.644Z,23.43
2017-01-22T02:48:17.239Z,23.35
2017-01-22T02:48:57.840Z,23.4
2017-01-22T02:49:38.426Z,23.38
2017-01-22T02:50:19.012Z,23.38
2017-01-22T02:50:59.597Z,23.39
2017-01-22T02:51:40.190Z,23.5
2017-01-22T02:52:20.783Z,23.39
2017-01-22T02:53:01.399Z,23.36
2017-01-22T02:53:41.998Z,23.4
2017-01-22T02:54:22.617Z,23.43
2017-01-22T02:55:03.210Z,23.4
2017-01-22T02:55:43.820Z,23.4
2017-01-22T02:56:24.416Z,23.43
2017-01-22T02:57:05.017Z,23.43
2017-01-22T02:57:45.612Z,23.48
2017-01-22T02:58:26.181Z,23.47
2017-01-22T02:59:06.778Z,23.51
2017-01-22T02:59:47.372Z,23.48
2017-01-22T03:00:27.980Z,23.43
2017-01-22T03:01:08.584Z,23.47
2017-01-22T03:01:49.185Z,23.46
2017-01-22T03:02:29.793Z,23.46
2017-01-22T03:03:10.382Z,23.47
2017-01-22T03:03:50.976Z,23.51
2017-01-22T03:04:31.584Z,23.51
2017-01-22T03:05:12.184Z,23.51
2017-01-22T03:05:52.772Z,23.54
2017-01-22T03:06:33.366Z,23.5
2017-01-22T03:07:13.953Z,23.53
2017-01-22T03:07:54.540Z,23.5
2017-01-22T03:08:35.122Z,23.5
2017-01-22T03:09:15.705Z,23.5
2017-01-22T03:09:56.289Z,23.48
2017-01-22T03:10:36.893Z,23.46
2017-01-22T03:11:17.468Z,23.4
2017-01-22T03:11:58.049Z,23.51
2017-01-22T03:12:38.655Z,23.46
2017-01-22T03:13:19.244Z,23.5
2017-01-22T03:13:59.845Z,23.47
2017-01-22T03:14:40.440Z,23.43
2017-01-22T03:15:21.038Z,23.4
2017-01-22T03:16:01.640Z,23.47
2017-01-22T03:16:42.238Z,23.36
2017-01-22T03:17:22.833Z,23.43
2017-01-22T03:18:03.440Z,23.36
2017-01-22T03:18:44.036Z,23.36
2017-01-22T03:19:24.617Z,23.38
2017-01-22T03:20:05.196Z,23.4
2017-01-22T03:20:45.784Z,23.42
2017-01-22T03:21:26.374Z,23.4
2017-01-22T03:22:06.994Z,23.35
2017-01-22T03:22:47.572Z,23.28
2017-01-22T03:23:28.176Z,23.38
2017-01-22T03:24:08.779Z,23.39
2017-01-22T03:24:49.396Z,23.31
2017-01-22T03:25:29.981Z,23.32
2017-01-22T03:26:10.566Z,23.28
2017-01-22T03:26:51.160Z,23.32
2017-01-22T03:27:31.749Z,23.22
2017-01-22T03:28:12.351Z,23.2
2017-01-22T03:28:52.971Z,23.35
2017-01-22T03:29:33.569Z,23.2
2017-01-22T03:30:14.168Z,23.23
2017-01-22T03:30:54.753Z,23.17
2017-01-22T03:31:35.350Z,23.27
2017-01-22T03:32:15.961Z,23.19
2017-01-22T03:32:56.570Z,23.23
2017-01-22T03:33:37.167Z,23.33
2017-01-22T03:34:17.771Z,23.31
2017-01-22T03:34:58.393Z,23.31
2017-01-22T03:35:38.983Z,23.27
2017-01-22T03:36:19.606Z,23.13
2017-01-22T03:37:00.181Z,23.22
2017-01-22T03:37:40.790Z,23.28
2017-01-22T03:38:21.368Z,23.17
2017-01-22T03:39:01.956Z,23.17
2017-01-22T03:39:42.545Z,23.17
2017-01-22T03:40:23.140Z,23.23
2017-01-22T03:41:03.736Z,23.23
2017-01-22T03:41:44.326Z,23.13
2017-01-22T03:42:24.901Z,23.19
2017-01-22T03:43:05.498Z,23.15
2017-01-22T03:43:46.081Z,23.19
2017-01-22T03:44:26.682Z,23.15
2017-01-22T03:45:07.276Z,23.19
2017-01-22T03:45:47.868Z,23.12
2017-01-22T03:46:28.478Z,23.13
2017-01-22T03:47:09.100Z,23.1
2017-01-22T03:47:49.696Z,23.16
2017-01-22T03:48:30.272Z,23.1
2017-01-22T03:49:10.866Z,23.16
2017-01-22T03:49:51.454Z,23.12
2017-01-22T03:50:32.053Z,23.12
2017-01-22T03:51:12.651Z,23.17
2017-01-22T03:51:53.235Z,23.12
2017-01-22T03:52:33.842Z,23.13
2017-01-22T03:53:14.429Z,23.12
2017-01-22T03:53:55.035Z,23.16
2017-01-22T03:54:35.636Z,23.13
2017-01-22T03:55:16.232Z,23.12
2017-01-22T03:55:56.828Z,23.12
2017-01-22T03:56:37.447Z,23.12
2017-01-22T03:57:18.027Z,23.12
2017-01-22T03:57:58.657Z,23.1
2017-01-22T03:58:39.249Z,23.1
2017-01-22T03:59:19.830Z,23.05
2017-01-22T04:00:00.426Z,23.1
2017-01-22T04:00:41.016Z,23.09
2017-01-22T04:01:21.600Z,23.1
2017-01-22T04:02:02.190Z,23.12
2017-01-22T04:02:42.768Z,23.05
2017-01-22T04:03:23.370Z,23.1
2017-01-22T04:04:03.962Z,23.07
2017-01-22T04:04:44.568Z,23.1
2017-01-22T04:05:25.155Z,23.01
2017-01-22T04:06:05.755Z,23.02
2017-01-22T04:06:46.352Z,23.04
2017-01-22T04:07:26.944Z,23.02
2017-01-22T04:08:07.537Z,23.04
2017-01-22T04:08:48.130Z,23.01
2017-01-22T04:09:28.732Z,23
2017-01-22T04:10:09.313Z,22.97
2017-01-22T04:10:49.903Z,23.07
2017-01-22T04:11:30.496Z,23.1
2017-01-22T04:12:11.070Z,23.02
2017-01-22T04:12:51.668Z,23
2017-01-22T04:13:32.262Z,23
2017-01-22T04:14:12.875Z,22.98
2017-01-22T04:14:53.493Z,22.91
2017-01-22T04:15:34.074Z,23.01
2017-01-22T04:16:14.658Z,23.02
2017-01-22T04:16:55.252Z,23
2017-01-22T04:17:35.847Z,22.97
2017-01-22T04:18:16.436Z,22.97
2017-01-22T04:18:57.030Z,22.97
2017-01-22T04:19:37.629Z,22.98
2017-01-22T04:20:18.220Z,23.01
2017-01-22T04:20:58.808Z,22.98
2017-01-22T04:21:39.417Z,22.9
2017-01-22T04:22:20.004Z,22.91
2017-01-22T04:23:00.604Z,22.95
2017-01-22T04:23:41.196Z,22.86
2017-01-22T04:24:21.770Z,22.95
2017-01-22T04:25:02.354Z,22.98
2017-01-22T04:25:42.966Z,22.94
2017-01-22T04:26:23.551Z,22.88
2017-01-22T04:27:04.144Z,22.92
2017-01-22T04:27:44.730Z,22.9
2017-01-22T04:28:25.310Z,22.97
2017-01-22T04:29:05.908Z,22.92
2017-01-22T04:29:46.516Z,22.8
2017-01-22T04:30:27.120Z,22.88
2017-01-22T04:31:07.712Z,22.85
2017-01-22T04:31:48.316Z,22.91
2017-01-22T04:32:28.912Z,22.85
2017-01-22T04:33:09.523Z,22.95
2017-01-22T04:33:50.136Z,22.95
2017-01-22T04:34:30.739Z,22.8
2017-01-22T04:35:11.322Z,22.85
2017-01-22T04:35:51.928Z,22.86
2017-01-22T04:36:32.529Z,22.88
2017-01-22T04:37:13.125Z,22.92
2017-01-22T04:37:53.741Z,22.94
2017-01-22T04:38:34.331Z,22.83
2017-01-22T04:39:14.930Z,22.85
2017-01-22T04:39:55.520Z,22.85
2017-01-22T04:40:36.132Z,22.9
2017-01-22T04:41:16.738Z,22.85
2017-01-22T04:41:57.345Z,22.88
2017-01-22T04:42:37.937Z,22.83
2017-01-22T04:43:18.509Z,22.88
2017-01-22T04:43:59.121Z,22.92
2017-01-22T04:44:39.701Z,22.86
2017-01-22T04:45:20.292Z,22.85
2017-01-22T04:46:00.897Z,22.88
2017-01-22T04:46:41.496Z,22.91
2017-01-22T04:47:22.084Z,22.88
2017-01-22T04:48:02.665Z,22.85
2017-01-22T04:48:43.261Z,22.9
2017-01-22T04:49:23.860Z,22.88
2017-01-22T04:50:04.455Z,22.83
2017-01-22T04:50:45.054Z,22.82
2017-01-22T04:51:25.651Z,22.88
2017-01-22T04:52:06.235Z,22.79
2017-01-22T04:52:46.818Z,22.85
2017-01-22T04:53:27.425Z,22.83
2017-01-22T04:54:08.020Z,22.8
2017-01-22T04:54:48.617Z,22.86
2017-01-22T04:55:29.252Z,22.86
2017-01-22T04:56:09.821Z,22.92
2017-01-22T04:56:50.469Z,22.83
2017-01-22T04:57:31.073Z,22.83
2017-01-22T04:58:11.652Z,22.82
2017-01-22T04:58:52.234Z,22.83
2017-01-22T04:59:32.819Z,22.76
2017-01-22T05:00:13.400Z,22.79
2017-01-22T05:00:53.983Z,22.77
2017-01-22T05:01:34.580Z,22.83
2017-01-22T05:02:15.161Z,22.77
2017-01-22T05:02:55.743Z,22.76
2017-01-22T05:03:36.350Z,22.77
2017-01-22T05:04:16.947Z,22.75
2017-01-22T05:04:57.538Z,22.82
2017-01-22T05:05:38.114Z,22.75
2017-01-22T05:06:18.716Z,22.76
2017-01-22T05:06:59.300Z,22.73
2017-01-22T05:07:39.872Z,22.77
2017-01-22T05:08:20.475Z,22.77
2017-01-22T05:09:01.064Z,22.8
2017-01-22T05:09:41.664Z,22.76
2017-01-22T05:10:22.240Z,22.73
2017-01-22T05:11:02.819Z,22.76
2017-01-22T05:11:43.412Z,22.76
2017-01-22T05:12:24.008Z,22.8
2017-01-22T05:13:04.580Z,22.79
2017-01-22T05:13:45.163Z,22.77
2017-01-22T05:14:25.754Z,22.77
2017-01-22T05:15:06.348Z,22.75
2017-01-22T05:15:46.939Z,22.76
2017-01-22T05:16:27.516Z,22.8
2017-01-22T05:17:08.112Z,22.77
2017-01-22T05:17:48.700Z,22.79
2017-01-22T05:18:29.289Z,22.77
2017-01-22T05:19:09.877Z,22.82
2017-01-22T05:19:50.474Z,22.77
2017-01-22T05:20:31.070Z,22.73
2017-01-22T05:21:11.681Z,22.73
2017-01-22T05:21:52.267Z,22.65
2017-01-22T05:22:32.852Z,22.82
2017-01-22T05:23:13.438Z,22.72
2017-01-22T05:23:54.020Z,22.83
2017-01-22T05:24:34.604Z,22.76
2017-01-22T05:25:15.194Z,22.73
2017-01-22T05:25:55.777Z,22.7
2017-01-22T05:26:36.387Z,22.72
2017-01-22T05:27:16.977Z,22.67
2017-01-22T05:27:57.568Z,22.73
2017-01-22T05:28:38.163Z,22.65
2017-01-22T05:29:18.755Z,22.68
2017-01-22T05:29:59.389Z,22.68
2017-01-22T05:30:39.947Z,22.68
2017-01-22T05:31:20.541Z,22.68
2017-01-22T05:32:01.123Z,22.6
2017-01-22T05:32:41.703Z,22.72
2017-01-22T05:33:22.294Z,22.72
2017-01-22T05:34:02.891Z,22.72
2017-01-22T05:34:43.477Z,22.68
2017-01-22T05:35:24.070Z,22.64
2017-01-22T05:36:04.661Z,22.67
2017-01-22T05:36:45.263Z,22.64
2017-01-22T05:37:25.849Z,22.67
2017-01-22T05:38:06.467Z,22.62
2017-01-22T05:38:47.064Z,22.64
2017-01-22T05:39:27.665Z,22.68
2017-01-22T05:40:08.258Z,22.7
2017-01-22T05:40:48.841Z,22.65
2017-01-22T05:41:29.432Z,22.72
2017-01-22T05:42:10.023Z,22.68
2017-01-22T05:42:50.649Z,22.65
2017-01-22T05:43:31.210Z,22.68
2017-01-22T05:44:11.817Z,22.65
2017-01-22T05:44:52.403Z,22.65
2017-01-22T05:45:33.000Z,22.62
2017-01-22T05:46:13.606Z,22.72
2017-01-22T05:46:54.248Z,22.61
2017-01-22T05:47:34.821Z,22.6
2017-01-22T05:48:15.431Z,22.62
2017-01-22T05:48:56.027Z,22.64
2017-01-22T05:49:36.612Z,22.68
2017-01-22T05:50:17.204Z,22.64
2017-01-22T05:50:57.776Z,22.7
2017-01-22T05:51:38.387Z,22.65
2017-01-22T05:52:19.011Z,22.62
2017-01-22T05:52:59.578Z,22.57
2017-01-22T05:53:40.187Z,22.67
2017-01-22T05:54:20.760Z,22.6
2017-01-22T05:55:01.340Z,22.68
2017-01-22T05:55:41.938Z,22.58
2017-01-22T05:56:22.525Z,22.64
2017-01-22T05:57:03.137Z,22.61
2017-01-22T05:57:43.731Z,22.55
2017-01-22T05:58:24.331Z,22.51
2017-01-22T05:59:04.932Z,22.6
2017-01-22T05:59:45.534Z,22.58
2017-01-22T06:00:26.111Z,22.54
2017-01-22T06:01:06.710Z,22.57
2017-01-22T06:01:47.295Z,22.58
2017-01-22T06:02:27.911Z,22.61
2017-01-22T06:03:08.507Z,22.61
2017-01-22T06:03:49.095Z,22.58
2017-01-22T06:04:29.667Z,22.6
2017-01-22T06:05:10.257Z,22.55
2017-01-22T06:05:50.870Z,22.58
2017-01-22T06:06:31.464Z,22.55
2017-01-22T06:07:12.065Z,22.58
2017-01-22T06:07:52.672Z,22.65
2017-01-22T06:08:33.276Z,22.65
2017-01-22T06:09:13.869Z,22.65
2017-01-22T06:09:54.455Z,22.55
2017-01-22T06:10:35.035Z,22.6
2017-01-22T06:11:15.614Z,22.58
2017-01-22T06:11:56.219Z,22.55
2017-01-22T06:12:36.803Z,22.7
2017-01-22T06:13:17.380Z,22.57
2017-01-22T06:13:57.968Z,22.58
2017-01-22T06:14:38.567Z,22.57
2017-01-22T06:15:19.159Z,22.68
2017-01-22T06:15:59.749Z,22.57
2017-01-22T06:16:40.329Z,22.64
2017-01-22T06:17:20.934Z,22.57
2017-01-22T06:18:01.528Z,22.55
2017-01-22T06:18:42.128Z,22.7
2017-01-22T06:19:22.723Z,22.54
2017-01-22T06:20:03.312Z,22.54
2017-01-22T06:20:43.900Z,22.7
2017-01-22T06:21:24.493Z,22.67
2017-01-22T06:22:05.080Z,22.67
2017-01-22T06:22:45.697Z,22.7
2017-01-22T06:23:26.290Z,22.7
2017-01-22T06:24:06.874Z,22.64
2017-01-22T06:24:47.454Z,22.68
2017-01-22T06:25:28.060Z,22.68
2017-01-22T06:26:08.656Z,22.7
2017-01-22T06:26:49.252Z,22.72
2017-01-22T06:27:29.833Z,22.72
2017-01-22T06:28:10.437Z,22.6
2017-01-22T06:28:51.015Z,22.62
2017-01-22T06:29:31.608Z,22.6
2017-01-22T06:30:12.187Z,22.73
2017-01-22T06:30:52.776Z,22.68
2017-01-22T06:31:33.378Z,22.68
2017-01-22T06:32:13.973Z,22.72
2017-01-22T06:32:54.572Z,22.68
2017-01-22T06:33:35.183Z,22.73
2017-01-22T06:34:15.747Z,22.73
2017-01-22T06:34:56.334Z,22.7
2017-01-22T06:35:36.928Z,22.7
2017-01-22T06:36:17.521Z,22.8
2017-01-22T06:36:58.093Z,22.73
2017-01-22T06:37:38.670Z,22.72
2017-01-22T06:38:19.258Z,22.75
2017-01-22T06:38:59.839Z,22.79
2017-01-22T06:39:40.438Z,22.77
2017-01-22T06:40:21.026Z,22.82
2017-01-22T06:41:01.618Z,22.77
2017-01-22T06:41:42.199Z,22.85
2017-01-22T06:42:22.794Z,22.76
2017-01-22T06:43:03.411Z,22.75
2017-01-22T06:43:43.993Z,22.79
2017-01-22T06:44:24.572Z,22.76
2017-01-22T06:45:05.157Z,22.75
2017-01-22T06:45:45.753Z,22.75
2017-01-22T06:46:26.354Z,22.8
2017-01-22T06:47:06.945Z,22.76
2017-01-22T06:47:47.561Z,22.8
2017-01-22T06:48:28.166Z,22.77
2017-01-22T06:49:08.749Z,22.73
2017-01-22T06:49:49.340Z,22.83
2017-01-22T06:50:29.921Z,22.76
2017-01-22T06:51:10.509Z,22.73
2017-01-22T06:51:51.093Z,22.77
2017-01-22T06:52:31.670Z,22.82
2017-01-22T06:53:12.268Z,22.8
2017-01-22T06:53:52.866Z,22.73
2017-01-22T06:54:33.468Z,22.76
2017-01-22T06:55:14.040Z,22.77
2017-01-22T06:55:54.620Z,22.79
2017-01-22T06:56:35.207Z,22.72
2017-01-22T06:57:15.781Z,22.83
2017-01-22T06:57:56.362Z,22.73
2017-01-22T06:58:36.941Z,22.76
2017-01-22T06:59:17.528Z,22.76
2017-01-22T06:59:58.116Z,22.77
2017-01-22T07:00:38.711Z,22.82
2017-01-22T07:01:19.301Z,22.77
2017-01-22T07:02:00.548Z,22.85
2017-01-22T07:02:41.144Z,22.77
2017-01-22T07:03:21.732Z,22.77
2017-01-22T07:04:02.312Z,22.8
2017-01-22T07:04:42.882Z,22.76
2017-01-22T07:05:23.469Z,22.83
2017-01-22T07:06:04.061Z,22.86
2017-01-22T07:06:44.667Z,22.83
2017-01-22T07:07:25.267Z,22.82
2017-01-22T07:08:05.867Z,22.79
2017-01-22T07:08:46.458Z,22.8
2017-01-22T07:09:27.052Z,22.86
2017-01-22T07:10:07.637Z,22.86
2017-01-22T07:10:48.226Z,22.79
2017-01-22T07:11:28.822Z,22.82
2017-01-22T07:12:09.409Z,22.86
2017-01-22T07:12:49.996Z,22.8
2017-01-22T07:13:30.580Z,22.83
2017-01-22T07:14:11.162Z,22.83
2017-01-22T07:14:51.745Z,22.86
2017-01-22T07:15:32.347Z,22.8
2017-01-22T07:16:12.932Z,22.85
2017-01-22T07:16:53.522Z,22.85
2017-01-22T07:17:34.112Z,22.82
2017-01-22T07:18:14.701Z,22.9
2017-01-22T07:18:55.295Z,22.82
2017-01-22T07:19:35.885Z,22.86
2017-01-22T07:20:16.473Z,22.91
2017-01-22T07:20:57.065Z,22.85
2017-01-22T07:21:37.653Z,22.85
2017-01-22T07:22:18.245Z,22.92
2017-01-22T07:22:58.825Z,22.83
2017-01-22T07:23:39.405Z,22.82
2017-01-22T07:24:19.985Z,22.85
2017-01-22T07:25:00.575Z,22.83
2017-01-22T07:25:41.153Z,22.92
2017-01-22T07:26:21.750Z,22.86
2017-01-22T07:27:02.338Z,22.86
2017-01-22T07:27:42.916Z,22.88
2017-01-22T07:28:23.499Z,22.88
2017-01-22T07:29:04.092Z,22.86
2017-01-22T07:29:44.681Z,22.86
2017-01-22T07:30:25.258Z,22.85
2017-01-22T07:31:05.842Z,22.9
2017-01-22T07:31:46.429Z,22.83
2017-01-22T07:32:27.050Z,22.85
2017-01-22T07:33:07.641Z,22.86
2017-01-22T07:33:48.223Z,22.85
2017-01-22T07:34:28.797Z,22.88
2017-01-22T07:35:09.379Z,22.85
2017-01-22T07:35:49.962Z,22.86
2017-01-22T07:36:30.572Z,22.91
2017-01-22T07:37:11.160Z,22.85
2017-01-22T07:37:51.755Z,22.86
2017-01-22T07:38:32.352Z,22.85
2017-01-22T07:39:12.939Z,22.92
2017-01-22T07:39:53.537Z,22.86
2017-01-22T07:40:34.133Z,22.82
2017-01-22T07:41:14.714Z,22.88
2017-01-22T07:41:55.303Z,22.95
2017-01-22T07:42:35.886Z,22.95
2017-01-22T07:43:16.498Z,22.91
2017-01-22T07:43:57.086Z,22.88
2017-01-22T07:44:37.678Z,22.85
2017-01-22T07:45:18.269Z,22.83
2017-01-22T07:45:58.881Z,22.85
2017-01-22T07:46:39.466Z,22.85
2017-01-22T07:47:20.050Z,22.88
2017-01-22T07:48:00.639Z,22.86
2017-01-22T07:48:41.222Z,22.85
2017-01-22T07:49:21.809Z,22.94
2017-01-22T07:50:02.412Z,22.92
2017-01-22T07:50:42.999Z,22.88
2017-01-22T07:51:23.584Z,22.91
2017-01-22T07:52:04.189Z,22.88
2017-01-22T07:52:44.787Z,22.79
2017-01-22T07:53:25.366Z,22.94
2017-01-22T07:54:05.965Z,22.86
2017-01-22T07:54:46.567Z,22.85
2017-01-22T07:55:27.151Z,22.83
2017-01-22T07:56:07.752Z,22.9
2017-01-22T07:56:48.337Z,22.88
2017-01-22T07:57:28.921Z,22.88
2017-01-22T07:58:09.513Z,22.86
2017-01-22T07:58:50.116Z,22.88
2017-01-22T07:59:30.718Z,22.85
2017-01-22T08:00:11.312Z,22.9
2017-01-22T08:00:51.903Z,22.86
2017-01-22T08:01:32.497Z,22.86
2017-01-22T08:02:13.078Z,22.8
2017-01-22T08:02:53.676Z,22.92
2017-01-22T08:03:34.272Z,22.88
2017-01-22T08:04:14.876Z,22.92
2017-01-22T08:04:55.455Z,22.85
2017-01-22T08:05:36.034Z,22.85
2017-01-22T08:06:16.618Z,22.9
2017-01-22T08:06:57.204Z,22.83
2017-01-22T08:07:37.791Z,22.94
2017-01-22T08:08:18.382Z,22.88
2017-01-22T08:08:59.758Z,22.88
2017-01-22T08:09:40.347Z,22.94
2017-01-22T08:10:20.934Z,22.9
2017-01-22T08:11:01.523Z,22.86
2017-01-22T08:11:42.124Z,22.86
2017-01-22T08:12:22.707Z,22.86
2017-01-22T08:13:03.292Z,22.95
2017-01-22T08:13:43.873Z,22.86
2017-01-22T08:14:24.445Z,22.9
2017-01-22T08:15:05.026Z,22.94
2017-01-22T08:15:45.618Z,22.95
2017-01-22T08:16:26.197Z,22.92
2017-01-22T08:17:06.794Z,22.9
2017-01-22T08:17:47.383Z,22.92
2017-01-22T08:18:27.971Z,23.01
2017-01-22T08:19:08.553Z,22.95
2017-01-22T08:19:49.140Z,22.91
2017-01-22T08:20:29.727Z,22.85
2017-01-22T08:21:10.319Z,22.94
2017-01-22T08:21:50.905Z,22.97
2017-01-22T08:22:31.488Z,23.02
2017-01-22T08:23:12.105Z,22.95
2017-01-22T08:23:52.732Z,22.97
2017-01-22T08:24:33.316Z,22.95
2017-01-22T08:25:13.917Z,22.97
2017-01-22T08:25:54.505Z,22.94
2017-01-22T08:26:35.110Z,23.04
2017-01-22T08:27:15.713Z,23.01
2017-01-22T08:27:56.338Z,22.98
2017-01-22T08:28:36.943Z,22.98
2017-01-22T08:29:17.519Z,22.98
2017-01-22T08:29:58.131Z,22.98
2017-01-22T08:30:38.724Z,22.95
2017-01-22T08:31:19.313Z,23.02
2017-01-22T08:31:59.930Z,23
2017-01-22T08:32:40.528Z,22.95
2017-01-22T08:33:21.105Z,22.98
2017-01-22T08:34:01.694Z,23
2017-01-22T08:34:42.271Z,23.02
2017-01-22T08:35:22.854Z,22.98
2017-01-22T08:36:03.453Z,23.02
2017-01-22T08:36:44.044Z,23
2017-01-22T08:37:24.631Z,23.01
2017-01-22T08:38:05.207Z,22.98
2017-01-22T08:38:45.811Z,22.95
2017-01-22T08:39:26.400Z,23
2017-01-22T08:40:07.002Z,22.94
2017-01-22T08:40:47.593Z,23
2017-01-22T08:41:28.180Z,23.04
2017-01-22T08:42:08.775Z,23.01
2017-01-22T08:42:49.371Z,22.98
2017-01-22T08:43:29.955Z,23.01
2017-01-22T08:44:10.545Z,23
2017-01-22T08:44:51.129Z,23.04
2017-01-22T08:45:31.713Z,23.02